aviador You're here:

K2V5 Decoded Metar

in
Report Time2017-03-23 23:15:00
UTC Time2017-03-24 00:08:08
Flight Rules vfr VFR
Wind160° at 07 Gusting to 17 kt
W.Rank160° ranks 7
Current wind is below 160° avg. (10.0)
Visibility9999 m
Phenomena:N/A
Clouds:N/A
Expected CloudBase > 13,200 ft AGL from Temp-Dew spread
CeilingNone
Temp27°C
Dew Point-6°C (11% RH)
Heat Index25.9°C
AAT21.8°C
QNH998 hPa
Raw Report
METAR K2V5 232315Z AUTO 16007G17KT 10SM CLR 27/M06 A2947 RMK AO2=

Extra information for K2V5:More info

Social comments